Antioch, CA

9:50 PM PDT on August 19, 2014 (GMT -0700)
Mountaire Meadows | Change Station
CLOSE
Current Station
Personal Weather Station
Location: Antioch, CA
Elevation: 128 ft
Nearby Weather Stations

Elev 128 ft 37.99 °N, 121.80 °W | Updated 5 seconds ago

Partly Cloudy
Partly Cloudy
64.8 °F
Feels Like 64.8 °F
N
3.6
Wind Variable Wind from West
Gusts 7.8 mph

Today
High -- | Low -- °F
--% Chance of Precip.
Yesterday
High -- | Low -- °F
Precip. -- in
6:25 AM 7:54 PM
Waning Crescent, 24% visible
Pressure 29.79 in
Visibility 10.0 miles
Clouds Few 1000 ft
Dew Point 58 °F
Humidity 78%
Rainfall 0.00 in
Snow Depth Not available.
UV 0 out of 12
Pollen 4.90 out of 12
PM2.5 Good
Flu Activity Not available.
METAR KCCR 200353Z 26009KT 10SM FEW010 17/14 A2983 RMK AO2 SLP087 T01720139

More Conditions Fewer Conditions

Pressure 29.79 in
Visibility 10.0 miles
Clouds Few 1000 ft
Dew Point 58 °F
Humidity 78%
Rainfall 0.00 in
Snow Depth Not available.
UV 0 out of 12
Pollen 4.90 out of 12
PM2.5 Good
Flu Activity Not available.
METAR KCCR 200353Z 26009KT 10SM FEW010 17/14 A2983 RMK AO2 SLP087 T01720139

More Conditions Fewer Conditions

10-Day Weather Forecast

Almanac

Astronomy

Aug. 19, 2014 Rise Set
Actual Time 6:25 AM PDT 7:54 PM PDT
Civil Twilight 5:58 AM PDT 8:22 PM PDT
Nautical Twilight 5:24 AM PDT 8:55 PM PDT
Astronomical Twilight 4:49 AM PDT 9:30 PM PDT
Moon 1:23 AM PDT (8/19) 3:54 PM PDT (8/19)
Length of Visible Light 14h 24m
Length of Day
13h 29m
Tomorrow will be 2m 12s shorter.
Waning Crescent, 24% of the Moon is Illuminated
Aug 20
Waning Crescent
Aug 25
New
Sep 2
First Quarter
Sep 8
Full
Sep 15
Last Quarter

Yesterday's Extremes

State Highs State Lows

Community

WunderPhotos

Upload Photos

1,745,585 photos uploaded!

Nearby

Air Quality

  Air Quality AQ Index Pollutant
Yesterday Good
OZONE
Yesterday Good
PM2.5
Current Good
PM2.5
Tuesday Good
OZONE
Wednesday Good
OZONE
Thursday Good
OZONE
Friday Good
OZONE
Saturday Good
OZONE
Sunday Good
OZONE

Snow Depth

Station Depth Elevation
Blue Lakes 0 in 8000 ft
Echo Peak 1 in 7800 ft
Hagan's Meadow 0 in 8000 ft
Leavitt Lake 0 in 9400 ft
Leavitt Meadows 0 in 7200 ft

Earthquake Activity

City Distance Mag. Time & Date
Kettleman City, California 166 miles 2.9 11:32 PM PDT
2014-08-14
King City, California 127 miles 2.9 8:01 PM PDT
2014-08-14
Mariposa, California 107 miles 2.5 4:54 AM PDT
2014-08-14
Mariposa, California 107 miles 2.7 3:31 AM PDT
2014-08-14
Minimum magnitude displayed is 2.5.

Coastal Water Temperatures

Place Temperature
San Francisco, CA 64.0 °F
Richmond, CA 66.0 °F
Port Chicago, CA 70.0 °F

Nearby Weather Stations